createdAt,value
2022-12-18T00:01:09.886Z,32.3
2022-12-18T00:02:23.413Z,31.9
2022-12-18T00:03:31.784Z,31.9
2022-12-18T00:04:40.837Z,31
2022-12-18T03:03:12.630Z,31
2022-12-18T03:04:22.253Z,25.6
2022-12-18T03:05:40.482Z,24.9
2022-12-18T03:06:58.967Z,25.2
2022-12-18T03:47:11.430Z,24.2
2022-12-18T03:48:20.626Z,24.7
2022-12-18T03:49:30.744Z,22.7
2022-12-18T03:50:42.194Z,22.5
2022-12-18T03:51:51.387Z,24
2022-12-18T03:57:13.806Z,24
2022-12-18T03:58:22.842Z,23.5
2022-12-18T03:59:32.101Z,24.8
2022-12-18T04:00:39.974Z,25.8
2022-12-18T04:01:51.972Z,26.3
2022-12-18T05:08:20.910Z,24.5
2022-12-18T05:09:29.882Z,22.8
2022-12-18T05:10:42.422Z,23.3
2022-12-18T05:11:50.910Z,23.9
2022-12-18T05:54:39.612Z,23.9
2022-12-18T05:55:47.683Z,24.2
2022-12-18T05:56:57.330Z,24.3
2022-12-18T05:58:06.374Z,24.1
2022-12-18T05:59:16.523Z,24.1
2022-12-18T06:00:45.654Z,23.9
2022-12-18T06:01:55.740Z,24.6
2022-12-18T06:03:07.072Z,26.9
2022-12-18T06:04:16.219Z,26.1
2022-12-18T06:05:26.804Z,24.8
2022-12-18T06:44:05.598Z,24.8
2022-12-18T06:45:13.933Z,25.2
2022-12-18T06:46:25.897Z,23.6
2022-12-18T06:47:34.473Z,25.2
2022-12-18T06:48:44.501Z,24
2022-12-18T07:23:41.844Z,23.8
2022-12-18T07:24:50.031Z,22.4
2022-12-18T07:25:59.587Z,23.7
2022-12-18T07:27:12.065Z,23.4
2022-12-18T07:28:22.854Z,23.3
2022-12-18T08:07:53.427Z,29.2
2022-12-18T08:09:01.961Z,28.1
2022-12-18T08:10:13.273Z,25.2
2022-12-18T08:11:24.733Z,24.2
2022-12-18T08:12:33.165Z,25.1
2022-12-18T08:17:16.268Z,25.1
2022-12-18T08:18:31.525Z,23.8
2022-12-18T08:19:39.817Z,25.9
2022-12-18T08:20:47.044Z,23.7
2022-12-18T08:21:57.368Z,24.9
2022-12-18T08:23:05.610Z,23.5
2022-12-18T08:24:13.136Z,25.4
2022-12-18T08:25:20.576Z,26
2022-12-18T08:26:28.216Z,24.9
2022-12-18T08:27:35.712Z,27.4
2022-12-18T08:28:44.260Z,27.5
2022-12-18T08:29:52.858Z,27.3
2022-12-18T08:31:01.068Z,27.4
2022-12-18T08:32:08.828Z,27.8
2022-12-18T08:33:17.119Z,27.5
2022-12-18T08:34:25.428Z,27.7
2022-12-18T08:35:36.429Z,26.6
2022-12-18T08:36:43.088Z,26.7
2022-12-18T08:37:51.654Z,27.5
2022-12-18T08:39:00.164Z,25.2
2022-12-18T08:40:07.799Z,26.5
2022-12-18T08:41:15.336Z,26.5
2022-12-18T08:42:22.408Z,25.9
2022-12-18T08:43:35.583Z,24.4
2022-12-18T08:44:47.600Z,25.7
2022-12-18T08:45:57.132Z,26.3
2022-12-18T08:47:04.684Z,26.6
2022-12-18T08:48:12.096Z,24.6
2022-12-18T08:49:19.748Z,23.9
2022-12-18T08:50:29.551Z,24.6
2022-12-18T08:51:36.607Z,25.7
2022-12-18T08:52:44.133Z,25.1
2022-12-18T08:53:52.628Z,25.7
2022-12-18T08:55:00.537Z,25.2
2022-12-18T08:56:11.178Z,26.7
2022-12-18T08:57:19.464Z,27.6
2022-12-18T08:58:26.936Z,26.9
2022-12-18T08:59:34.308Z,27.4
2022-12-18T09:00:41.816Z,28.1
2022-12-18T09:01:50.667Z,28.5
2022-12-18T09:02:59.248Z,27.5
2022-12-18T09:04:06.760Z,26.8
2022-12-18T09:05:14.995Z,27.1
2022-12-18T09:06:22.592Z,26.5
2022-12-18T09:07:29.972Z,26.4
2022-12-18T09:08:39.964Z,24.8
2022-12-18T09:09:48.691Z,26.8
2022-12-18T09:10:56.498Z,26.1
2022-12-18T09:12:03.863Z,26.9
2022-12-18T09:13:13.155Z,25.9
2022-12-18T09:14:20.740Z,25.8
2022-12-18T09:15:28.212Z,25.3
2022-12-18T09:16:35.573Z,26
2022-12-18T09:17:42.812Z,26.7
2022-12-18T09:18:50.116Z,27.1
2022-12-18T09:19:58.739Z,26.7
2022-12-18T09:21:06.515Z,28.1
2022-12-18T09:22:17.816Z,28.6
2022-12-18T09:23:25.148Z,29.3
2022-12-18T09:24:32.757Z,36.6
2022-12-18T09:25:41.320Z,30.5
2022-12-18T09:26:49.364Z,29.3
2022-12-18T09:27:58.708Z,29.3
2022-12-18T09:29:10.279Z,26.6
2022-12-18T09:30:17.577Z,27.8
2022-12-18T09:31:25.229Z,27.2
2022-12-18T09:32:32.756Z,26
2022-12-18T09:33:40.932Z,26
2022-12-18T09:34:48.092Z,24.9
2022-12-18T09:35:55.603Z,26.5
2022-12-18T09:37:03.739Z,26.7
2022-12-18T09:38:10.994Z,25.4
2022-12-18T09:39:18.604Z,25.9
2022-12-18T09:40:26.279Z,26.9
2022-12-18T09:41:34.047Z,29.5
2022-12-18T09:42:49.475Z,26.7
2022-12-18T09:43:57.445Z,26.6
2022-12-18T09:45:08.063Z,28.4
2022-12-18T09:46:15.364Z,26.8
2022-12-18T09:47:28.212Z,27.8
2022-12-18T09:48:37.555Z,25.8
2022-12-18T09:49:48.036Z,25.2
2022-12-18T09:50:55.667Z,26.1
2022-12-18T09:52:04.256Z,26.7
2022-12-18T09:53:13.095Z,26.1
2022-12-18T09:54:23.031Z,26.1
2022-12-18T09:55:36.768Z,27.4
2022-12-18T09:56:50.003Z,31
2022-12-18T09:57:58.849Z,29.7
2022-12-18T09:59:07.315Z,28
2022-12-18T10:00:14.827Z,28.5
2022-12-18T10:01:24.033Z,28.2
2022-12-18T10:02:31.318Z,29.2
2022-12-18T10:03:38.579Z,28.6
2022-12-18T10:04:45.714Z,28.8
2022-12-18T10:05:56.827Z,28.8
2022-12-18T10:07:12.116Z,28.5
2022-12-18T10:08:19.296Z,28.4
2022-12-18T10:09:32.515Z,27.2
2022-12-18T10:10:48.483Z,27.7
2022-12-18T10:11:58.623Z,28.2
2022-12-18T10:13:11.601Z,28.8
2022-12-18T10:14:23.847Z,26.6
2022-12-18T10:15:36.563Z,27
2022-12-18T10:16:54.678Z,27.3
2022-12-18T10:18:09.863Z,28.1
2022-12-18T10:19:20.309Z,27.4
2022-12-18T10:20:33.734Z,26.3
2022-12-18T10:21:44.018Z,27.2
2022-12-18T10:22:59.267Z,26.3
2022-12-18T10:24:18.153Z,26.4
2022-12-18T10:25:27.761Z,24.8
2022-12-18T10:26:42.957Z,26.7
2022-12-18T10:27:50.303Z,28
2022-12-18T10:29:02.132Z,26.7
2022-12-18T10:30:04.911Z,29
2022-12-18T10:31:17.527Z,29.1
2022-12-18T10:32:24.679Z,28.6
2022-12-18T10:33:32.944Z,28.5
2022-12-18T10:34:42.628Z,29.3
2022-12-18T10:35:52.732Z,29.6
2022-12-18T10:37:00.083Z,29.5
2022-12-18T10:38:19.793Z,31.1
2022-12-18T10:39:27.312Z,31.4
2022-12-18T10:40:36.146Z,31.8
2022-12-18T10:41:56.187Z,30.5
2022-12-18T10:43:12.891Z,32.9
2022-12-18T10:44:37.705Z,31.3
2022-12-18T10:45:45.032Z,30.5
2022-12-18T10:47:08.721Z,31.5
2022-12-18T10:48:13.969Z,31.9
2022-12-18T10:49:24.478Z,31.9
2022-12-18T10:51:01.659Z,31.4
2022-12-18T10:51:41.992Z,33.7
2022-12-18T10:52:49.255Z,34.6
2022-12-18T10:54:06.319Z,33.5
2022-12-18T10:55:20.246Z,35.1
2022-12-18T10:56:28.177Z,34.4
2022-12-18T10:57:37.615Z,32.8
2022-12-18T10:58:46.720Z,32.7
2022-12-18T11:00:04.127Z,33.8
2022-12-18T11:01:22.100Z,34.6
2022-12-18T11:02:29.652Z,34.3
2022-12-18T11:03:39.366Z,34.9
2022-12-18T11:04:48.983Z,33.1
2022-12-18T11:05:56.954Z,30.9
2022-12-18T11:07:10.279Z,30.6
2022-12-18T11:08:17.552Z,31.2
2022-12-18T11:09:24.936Z,31
2022-12-18T11:10:32.218Z,30.6
2022-12-18T11:11:42.211Z,31.4
2022-12-18T11:12:55.463Z,32.1
2022-12-18T11:14:13.743Z,31.5
2022-12-18T11:15:21.369Z,31.1
2022-12-18T11:16:28.356Z,31.3
2022-12-18T11:17:40.370Z,30.9
2022-12-18T11:18:48.707Z,28.7
2022-12-18T11:19:56.670Z,26.3
2022-12-18T11:21:03.948Z,28.9
2022-12-18T11:22:14.425Z,26.8
2022-12-18T11:23:27.530Z,27.4
2022-12-18T11:24:35.838Z,28
2022-12-18T11:25:44.754Z,28.5
2022-12-18T11:26:59.883Z,25.6
2022-12-18T11:28:09.430Z,24.4
2022-12-18T11:29:27.219Z,22.3
2022-12-18T11:30:35.544Z,22.8
2022-12-18T11:31:43.151Z,22.8
2022-12-18T11:32:50.778Z,22.3
2022-12-18T11:35:21.343Z,23.2
2022-12-18T11:36:34.611Z,23
2022-12-18T11:37:44.314Z,21.6
2022-12-18T11:38:54.243Z,22.7
2022-12-18T11:40:02.915Z,21.7
2022-12-18T11:41:15.440Z,23.1
2022-12-18T11:42:28.144Z,24
2022-12-18T11:43:38.523Z,24.1
2022-12-18T11:44:45.378Z,27.4
2022-12-18T11:45:52.825Z,27.2
2022-12-18T11:47:05.747Z,27.5
2022-12-18T11:48:23.475Z,26.6
2022-12-18T11:49:36.212Z,27.1
2022-12-18T11:50:43.314Z,25.8
2022-12-18T11:51:53.586Z,25.6
2022-12-18T11:53:05.542Z,26
2022-12-18T11:54:08.483Z,26.9
2022-12-18T11:55:20.362Z,26.4
2022-12-18T11:56:32.967Z,25.8
2022-12-18T11:57:41.303Z,26.2
2022-12-18T11:58:53.973Z,26.5
2022-12-18T12:00:06.230Z,25.3
2022-12-18T12:01:16.615Z,27
2022-12-18T12:02:33.824Z,27.3
2022-12-18T12:03:51.729Z,27.9
2022-12-18T12:05:04.745Z,26.6
2022-12-18T12:06:22.131Z,28.5
2022-12-18T12:07:31.868Z,30.1
2022-12-18T12:08:43.541Z,29.7
2022-12-18T12:10:04.343Z,31.4
2022-12-18T12:11:18.003Z,30.7
2022-12-18T12:12:33.159Z,28.4
2022-12-18T12:13:51.490Z,28.5
2022-12-18T12:15:07.434Z,28.1
2022-12-18T12:16:14.618Z,28.5
2022-12-18T12:17:28.177Z,27.9
2022-12-18T12:18:41.095Z,26.9
2022-12-18T12:19:53.602Z,26.9
2022-12-18T12:21:06.878Z,28.3
2022-12-18T12:22:18.996Z,26.2
2022-12-18T12:23:36.355Z,27.3
2022-12-18T12:24:48.531Z,26.8
2022-12-18T12:26:07.146Z,27.5
2022-12-18T12:27:14.574Z,26.8
2022-12-18T12:28:29.921Z,27.6
2022-12-18T12:29:40.906Z,29
2022-12-18T12:30:54.009Z,28.1
2022-12-18T12:32:06.458Z,27
2022-12-18T12:33:17.448Z,28.8
2022-12-18T12:34:30.978Z,26.5
2022-12-18T12:35:47.459Z,26.5
2022-12-18T12:36:57.881Z,28.3
2022-12-18T12:38:13.310Z,28.6
2022-12-18T12:39:20.659Z,29.5
2022-12-18T12:41:37.021Z,25.9
2022-12-18T12:42:50.878Z,26.5
2022-12-18T12:44:04.166Z,26.6
2022-12-18T12:45:11.410Z,27.3
2022-12-18T12:46:24.654Z,27.3
2022-12-18T12:47:32.655Z,27.2
2022-12-18T12:48:44.337Z,27.8
2022-12-18T12:49:51.693Z,29
2022-12-18T12:51:00.378Z,28.7
2022-12-18T12:52:22.970Z,28.1
2022-12-18T12:53:37.846Z,27.3
2022-12-18T12:54:45.172Z,28.8
2022-12-18T12:55:52.162Z,26.5
2022-12-18T12:56:59.401Z,28.6
2022-12-18T12:58:18.569Z,28.4
2022-12-18T12:59:31.102Z,27.5
2022-12-18T13:00:46.083Z,28.5
2022-12-18T13:02:01.513Z,29.1
2022-12-18T13:03:21.478Z,28.6
2022-12-18T13:04:31.524Z,31.8
2022-12-18T13:05:42.463Z,31.1
2022-12-18T13:06:54.759Z,30.1
2022-12-18T13:08:13.949Z,29.5
2022-12-18T13:09:26.583Z,28.2
2022-12-18T13:10:34.729Z,28.3
2022-12-18T13:11:44.666Z,29.6
2022-12-18T13:12:57.114Z,27.9
2022-12-18T13:14:04.109Z,29.6
2022-12-18T13:15:12.122Z,29.8
2022-12-18T13:16:22.359Z,31
2022-12-18T13:17:30.643Z,30.4
2022-12-18T13:18:38.986Z,31
2022-12-18T13:19:45.883Z,31.4
2022-12-18T13:20:59.809Z,29.6
2022-12-18T13:22:03.509Z,32.1
2022-12-18T13:23:10.893Z,30
2022-12-18T13:24:23.729Z,30.7
2022-12-18T13:25:31.701Z,30.8
2022-12-18T13:26:38.654Z,31.5
2022-12-18T13:27:46.289Z,31.1
2022-12-18T13:28:58.570Z,31.3
2022-12-18T13:30:06.882Z,30.8
2022-12-18T13:31:24.393Z,30.9
2022-12-18T13:32:42.946Z,30.9
2022-12-18T13:34:24.247Z,32
2022-12-18T13:34:58.065Z,30.4
2022-12-18T13:36:16.435Z,30.8
2022-12-18T13:37:26.151Z,31.2
2022-12-18T13:38:36.478Z,28.9
2022-12-18T13:39:44.784Z,28.8
2022-12-18T13:40:52.818Z,26.9
2022-12-18T13:41:59.779Z,26.2
2022-12-18T13:43:10.001Z,26.5
2022-12-18T13:44:25.226Z,25.8
2022-12-18T13:45:43.093Z,25.9
2022-12-18T13:46:50.907Z,28.7
2022-12-18T13:47:58.994Z,27.6
2022-12-18T13:49:09.570Z,28.5
2022-12-18T13:50:16.742Z,27.7
2022-12-18T13:51:26.936Z,29.1
2022-12-18T13:52:34.713Z,30.1
2022-12-18T13:53:43.121Z,29.8
2022-12-18T13:54:56.468Z,31.1
2022-12-18T13:56:05.286Z,31.2
2022-12-18T13:57:13.130Z,31.5
2022-12-18T13:58:30.626Z,31.4
2022-12-18T13:59:38.027Z,30.3
2022-12-18T14:00:45.368Z,29
2022-12-18T14:01:52.432Z,31.4
2022-12-18T14:03:00.449Z,30.3
2022-12-18T14:04:07.529Z,31.2
2022-12-18T14:05:14.854Z,30.6
2022-12-18T14:06:25.269Z,29.6
2022-12-18T14:07:33.452Z,30.3
2022-12-18T14:08:43.678Z,31
2022-12-18T14:10:01.842Z,31.5
2022-12-18T14:11:03.018Z,31.5
2022-12-18T14:12:10.280Z,32.2
2022-12-18T14:13:33.056Z,31.5
2022-12-18T14:14:41.026Z,31.4
2022-12-18T14:15:48.494Z,31.2
2022-12-18T14:16:57.054Z,32.6
2022-12-18T14:18:04.913Z,31.7
2022-12-18T14:19:17.546Z,32.6
2022-12-18T14:20:26.554Z,33.1
2022-12-18T14:21:35.142Z,33.1
2022-12-18T14:22:44.202Z,33.3
2022-12-18T14:23:51.351Z,33.4
2022-12-18T14:25:10.127Z,33.7
2022-12-18T14:26:43.270Z,33.7
2022-12-18T14:27:50.394Z,35
2022-12-18T14:29:02.885Z,33
2022-12-18T14:30:19.509Z,34.1
2022-12-18T14:31:32.146Z,32.9
2022-12-18T14:32:52.882Z,34.1
2022-12-18T14:34:08.407Z,33.9
2022-12-18T14:35:21.833Z,34.4
2022-12-18T14:36:30.048Z,34.1
2022-12-18T14:37:38.012Z,36.2
2022-12-18T14:41:44.133Z,38.6
2022-12-18T14:42:52.758Z,37.3
2022-12-18T14:44:00.437Z,38.2
2022-12-18T14:45:16.164Z,40.3
2022-12-18T14:48:59.061Z,44.1
2022-12-18T14:50:09.317Z,46.6
2022-12-18T14:51:16.965Z,47.5
2022-12-18T14:52:24.767Z,48
2022-12-18T14:53:33.639Z,48.5
2022-12-18T14:54:44.822Z,51.5
2022-12-18T14:55:52.308Z,50.5
2022-12-18T14:57:00.426Z,53.6
2022-12-18T14:58:11.357Z,54.8
2022-12-18T14:59:23.941Z,57.8
2022-12-18T15:00:26.904Z,55.9
2022-12-18T15:01:34.272Z,58
2022-12-18T15:02:42.695Z,57.5
2022-12-18T15:03:52.593Z,57.7
2022-12-18T15:05:00.681Z,56.5
2022-12-18T15:06:07.851Z,58.1
2022-12-18T15:07:23.011Z,58.1
2022-12-18T15:08:30.453Z,55.2
2022-12-18T15:09:41.615Z,55.4
2022-12-18T15:10:51.086Z,52.3
2022-12-18T15:11:58.318Z,53.3
2022-12-18T15:13:05.885Z,51.4
2022-12-18T15:14:13.082Z,52.1
2022-12-18T15:15:26.521Z,49.5
2022-12-18T15:16:41.178Z,51.3
2022-12-18T15:17:45.829Z,50.2
2022-12-18T15:18:53.517Z,52.1
2022-12-18T15:20:01.878Z,51.3
2022-12-18T15:24:47.956Z,52.5
2022-12-18T15:25:56.349Z,50.3
2022-12-18T15:27:07.987Z,52.8
2022-12-18T15:28:26.550Z,53.3
2022-12-18T15:29:39.343Z,51.5
2022-12-18T15:30:58.187Z,53.9
2022-12-18T15:32:15.814Z,56.8
2022-12-18T15:33:23.687Z,54
2022-12-18T15:34:31.053Z,52.4
2022-12-18T15:35:46.707Z,55.7
2022-12-18T15:37:27.002Z,55.7
2022-12-18T15:38:34.579Z,53.2
2022-12-18T15:39:42.446Z,51.8
2022-12-18T15:40:49.796Z,54.4
2022-12-18T15:41:56.759Z,53.2
2022-12-18T15:43:11.737Z,52.7
2022-12-18T15:44:27.730Z,53.6
2022-12-18T15:45:35.219Z,54
2022-12-18T15:46:42.781Z,52.3
2022-12-18T15:47:52.014Z,56.6
2022-12-18T15:49:06.496Z,56.1
2022-12-18T15:50:14.570Z,58.6
2022-12-18T15:51:21.895Z,54.4
2022-12-18T15:52:28.750Z,58.4
2022-12-18T15:53:35.821Z,55.8
2022-12-18T15:54:55.025Z,56.6
2022-12-18T15:56:08.521Z,55.2
2022-12-18T15:57:20.855Z,56.4
2022-12-18T15:58:28.987Z,58.4
2022-12-18T15:59:35.870Z,59.3
2022-12-18T16:00:43.465Z,65.3
2022-12-18T16:01:52.541Z,68.4
2022-12-18T16:03:00.406Z,72
2022-12-18T16:04:07.485Z,74.1
2022-12-18T16:05:17.099Z,72.3
2022-12-18T16:06:26.007Z,72.3
2022-12-18T16:07:32.902Z,72.8
2022-12-18T16:08:39.923Z,74.9
2022-12-18T16:09:48.353Z,75.8
2022-12-18T16:11:19.847Z,79.1
2022-12-18T16:12:30.363Z,85.9
2022-12-18T16:13:39.415Z,84
2022-12-18T16:14:47.685Z,90.6
2022-12-18T16:15:56.741Z,92.1
2022-12-18T16:17:33.737Z,92.1
2022-12-18T16:18:42.621Z,98.4
2022-12-18T16:19:51.125Z,112.9
2022-12-18T16:20:58.277Z,111.5
2022-12-18T16:22:06.033Z,108.5
2022-12-18T16:24:03.915Z,108.5
2022-12-18T16:25:11.001Z,103.8
2022-12-18T16:26:23.255Z,101.6
2022-12-18T16:27:31.102Z,98.8
2022-12-18T16:28:41.494Z,100.5
2022-12-18T16:29:52.237Z,104.4
2022-12-18T16:31:00.437Z,98.1
2022-12-18T16:32:07.357Z,91.9
2022-12-18T16:33:20.649Z,97.6
2022-12-18T16:34:30.265Z,103
2022-12-18T16:35:40.673Z,103.2
2022-12-18T16:36:49.526Z,99.7
2022-12-18T16:37:57.300Z,103.3
2022-12-18T16:39:04.694Z,101.2
2022-12-18T16:40:12.030Z,102.6
2022-12-18T16:42:03.357Z,102.6
2022-12-18T16:43:17.278Z,107.7
2022-12-18T16:44:24.210Z,104.6
2022-12-18T16:45:31.357Z,93.8
2022-12-18T16:46:38.655Z,93.6
2022-12-18T16:47:56.030Z,96.3
2022-12-18T16:49:02.890Z,94.3
2022-12-18T16:50:10.034Z,88.7
2022-12-18T16:51:17.454Z,94.4
2022-12-18T16:52:25.654Z,97.9
2022-12-18T16:53:59.181Z,97.9
2022-12-18T16:55:07.762Z,103.3
2022-12-18T16:56:15.457Z,100.4
2022-12-18T16:57:23.553Z,98.6
2022-12-18T16:58:31.109Z,104.8
2022-12-18T16:59:41.921Z,102.1
2022-12-18T17:00:50.981Z,100
2022-12-18T17:01:57.894Z,90
2022-12-18T17:03:07.641Z,88.4
2022-12-18T17:04:14.767Z,86.7
2022-12-18T17:05:55.129Z,86.7
2022-12-18T17:07:03.799Z,82.8
2022-12-18T17:08:10.781Z,85.2
2022-12-18T17:09:17.941Z,83
2022-12-18T17:10:29.217Z,86.2
2022-12-18T17:11:55.537Z,86.1
2022-12-18T17:13:03.032Z,90
2022-12-18T17:14:11.599Z,90.7
2022-12-18T17:15:18.977Z,86.6
2022-12-18T17:16:27.159Z,87.6
2022-12-18T17:17:36.617Z,88.4
2022-12-18T17:18:44.701Z,84.1
2022-12-18T17:19:52.204Z,78.3
2022-12-18T17:20:59.677Z,76.7
2022-12-18T17:22:08.642Z,74.2
2022-12-18T17:23:21.322Z,77.2
2022-12-18T17:24:34.733Z,75.5
2022-12-18T17:25:37.592Z,74.9
2022-12-18T17:26:45.830Z,77.3
2022-12-18T17:27:53.176Z,72.2
2022-12-18T17:31:46.476Z,70.8
2022-12-18T17:32:53.569Z,68.1
2022-12-18T17:34:01.520Z,63.6
2022-12-18T17:35:09.209Z,67.4
2022-12-18T17:37:26.513Z,67.4
2022-12-18T17:38:35.037Z,66.8
2022-12-18T17:39:42.650Z,67.5
2022-12-18T17:40:49.965Z,65.4
2022-12-18T17:41:58.392Z,68.3
2022-12-18T17:43:43.357Z,68.3
2022-12-18T17:44:57.025Z,68.8
2022-12-18T17:46:05.593Z,67.2
2022-12-18T17:47:15.481Z,66.3
2022-12-18T17:48:23.913Z,67.5
2022-12-18T17:49:55.492Z,70
2022-12-18T17:51:05.001Z,67.9
2022-12-18T17:52:12.016Z,67.9
2022-12-18T17:53:19.041Z,67.9
2022-12-18T17:54:27.053Z,65.7
2022-12-18T17:55:36.861Z,66.6
2022-12-18T17:56:44.100Z,61.4
2022-12-18T17:57:52.021Z,67
2022-12-18T17:59:00.469Z,64.3
2022-12-18T18:00:08.269Z,63.9
2022-12-18T18:02:08.376Z,63.9
2022-12-18T18:03:15.387Z,66.5
2022-12-18T18:04:22.242Z,61.1
2022-12-18T18:05:29.648Z,61.3
2022-12-18T18:06:39.181Z,61.2
2022-12-18T18:07:55.076Z,60.1
2022-12-18T18:09:05.961Z,57.8
2022-12-18T18:10:14.255Z,61.2
2022-12-18T18:11:22.250Z,58.2
2022-12-18T18:12:35.168Z,61.1
2022-12-18T18:13:48.492Z,58.7
2022-12-18T18:15:01.901Z,60.5
2022-12-18T18:16:09.153Z,60.6
2022-12-18T18:17:18.748Z,59.5
2022-12-18T18:18:26.649Z,62.2
2022-12-18T18:20:37.633Z,62.2
2022-12-18T18:21:44.753Z,61
2022-12-18T18:22:51.937Z,63.8
2022-12-18T18:23:59.302Z,62.6
2022-12-18T18:25:07.074Z,63.3
2022-12-18T18:36:41.865Z,63.3
2022-12-18T18:37:51.798Z,69.5
2022-12-18T18:38:59.113Z,68.1
2022-12-18T18:40:06.412Z,67.2
2022-12-18T18:41:13.405Z,70.6
2022-12-18T18:42:25.649Z,64.7
2022-12-18T18:43:32.722Z,66.2
2022-12-18T18:44:44.502Z,65.8
2022-12-18T18:45:49.017Z,64.2
2022-12-18T18:47:00.104Z,61.9
2022-12-18T18:48:14.592Z,65.1
2022-12-18T18:49:21.912Z,63.9
2022-12-18T18:50:31.496Z,62.2
2022-12-18T18:51:39.917Z,61.6
2022-12-18T18:52:48.268Z,64
2022-12-18T18:54:25.950Z,64
2022-12-18T18:55:34.373Z,60.9
2022-12-18T18:57:11.533Z,63.8
2022-12-18T18:57:48.645Z,66
2022-12-18T18:58:56.544Z,63.5
2022-12-18T19:03:32.477Z,63.5
2022-12-18T19:04:45.925Z,64.8
2022-12-18T19:05:49.665Z,67.3
2022-12-18T19:07:01.014Z,67.7
2022-12-18T19:08:07.933Z,67.9
2022-12-18T19:12:42.836Z,65.3
2022-12-18T19:13:55.309Z,69.1
2022-12-18T19:15:03.105Z,69.5
2022-12-18T19:16:10.820Z,71
2022-12-18T19:17:18.505Z,67.6
2022-12-18T19:29:12.606Z,67.6
2022-12-18T19:30:16.847Z,71.4
2022-12-18T19:31:28.113Z,73.3
2022-12-18T19:32:33.591Z,68.4
2022-12-18T19:33:43.655Z,71.8
2022-12-18T19:35:15.205Z,71.8
2022-12-18T19:36:22.936Z,66.7
2022-12-18T19:37:32.080Z,63.2
2022-12-18T19:38:39.999Z,66.7
2022-12-18T19:39:47.569Z,62.7
2022-12-18T19:40:56.495Z,65.1
2022-12-18T19:42:03.845Z,61.5
2022-12-18T19:43:15.890Z,61.5
2022-12-18T19:44:24.255Z,63.1
2022-12-18T19:45:43.274Z,59.1
2022-12-18T19:46:50.249Z,60.1
2022-12-18T19:48:01.073Z,61.8
2022-12-18T19:49:04.717Z,59.4
2022-12-18T19:50:12.645Z,56.4
2022-12-18T19:51:29.827Z,59.6
2022-12-18T19:52:37.862Z,58.2
2022-12-18T19:53:46.213Z,59.1
2022-12-18T19:54:54.217Z,54.5
2022-12-18T19:56:01.586Z,55
2022-12-18T19:57:09.377Z,57.7
2022-12-18T19:58:17.741Z,53.6
2022-12-18T19:59:27.153Z,56
2022-12-18T20:00:34.386Z,54.1
2022-12-18T20:01:42.297Z,54.7
2022-12-18T20:05:42.118Z,54.7
2022-12-18T20:06:49.330Z,52.2
2022-12-18T20:08:00.087Z,54.9
2022-12-18T20:09:11.123Z,53.6
2022-12-18T20:10:29.993Z,54.2
2022-12-18T20:11:37.557Z,52.2
2022-12-18T20:12:45.778Z,53.2
2022-12-18T20:13:54.725Z,51
2022-12-18T20:15:07.857Z,48.5
2022-12-18T21:07:45.605Z,48.5
2022-12-18T21:08:54.065Z,52
2022-12-18T21:10:02.293Z,52.4
2022-12-18T21:11:10.808Z,53
2022-12-18T21:12:19.105Z,52.9
2022-12-18T21:14:07.636Z,52.9
2022-12-18T21:15:28.457Z,53.8
2022-12-18T21:16:32.328Z,51.8
2022-12-18T21:17:44.859Z,49.8
2022-12-18T21:18:50.478Z,51.1
2022-12-18T21:35:32.554Z,49
2022-12-18T21:36:35.309Z,49
2022-12-18T21:37:44.197Z,49.3
2022-12-18T21:38:51.960Z,49.7
2022-12-18T21:54:09.669Z,49.7
2022-12-18T21:55:18.773Z,54.1
2022-12-18T21:56:27.197Z,50.6
2022-12-18T21:57:45.334Z,53.3
2022-12-18T21:58:55.489Z,52.2
2022-12-18T22:09:45.567Z,56
2022-12-18T22:10:55.039Z,53
2022-12-18T22:12:02.152Z,55.6
2022-12-18T22:13:10.164Z,55.8
2022-12-18T22:14:28.944Z,55.9
2022-12-18T22:15:36.401Z,55.1
2022-12-18T22:16:43.969Z,55
2022-12-18T22:17:59.688Z,58.3
2022-12-18T22:19:04.579Z,58.6
2022-12-18T22:20:14.448Z,59.9
2022-12-18T22:21:27.110Z,61.5
2022-12-18T22:22:33.748Z,60.8
2022-12-18T22:23:42.812Z,60.5
2022-12-18T22:24:52.270Z,60.7
2022-12-18T22:26:09.001Z,60.6
2022-12-18T22:27:17.527Z,63.7
2022-12-18T22:28:27.516Z,62
2022-12-18T22:29:40.260Z,65.7
2022-12-18T22:30:54.938Z,64
2022-12-18T23:49:06.715Z,64
2022-12-18T23:50:14.459Z,61.3
2022-12-18T23:51:22.152Z,61
2022-12-18T23:52:30.449Z,60.7
2022-12-18T23:53:39.574Z,62.2
